createdAt,value
2022-10-28T00:02:14.538Z,96231.03
2022-10-28T00:06:08.523Z,96231.84
2022-10-28T00:09:51.702Z,96234.31
2022-10-28T00:13:34.903Z,96234.50
2022-10-28T00:17:20.313Z,96229.38
2022-10-28T00:21:09.488Z,96227.88
2022-10-28T00:24:52.556Z,96223.00
2022-10-28T00:28:36.165Z,96222.38
2022-10-28T00:32:22.101Z,96222.38
2022-10-28T00:36:14.566Z,96224.00
2022-10-28T00:39:57.478Z,96219.72
2022-10-28T00:43:49.117Z,96222.38
2022-10-28T00:47:42.766Z,96210.19
2022-10-28T00:51:26.859Z,96209.97
2022-10-28T00:55:10.407Z,96205.13
2022-10-28T00:58:56.635Z,96209.00
2022-10-28T01:02:46.775Z,96213.47
2022-10-28T01:06:30.438Z,96212.31
2022-10-28T01:10:14.842Z,96203.72
2022-10-28T01:14:37.112Z,96201.28
2022-10-28T01:18:29.710Z,96197.28
2022-10-28T01:22:19.672Z,96191.38
2022-10-28T01:26:27.991Z,96191.59
2022-10-28T01:30:14.990Z,96186.78
2022-10-28T01:34:09.808Z,96184.34
2022-10-28T01:38:03.080Z,96197.16
2022-10-28T01:41:50.138Z,96193.50
2022-10-28T01:45:39.866Z,96194.50
2022-10-28T01:49:29.624Z,96192.88
2022-10-28T01:53:14.647Z,96190.25
2022-10-28T01:56:58.354Z,96187.41
2022-10-28T02:00:45.277Z,96188.22
2022-10-28T02:04:30.682Z,96181.50
2022-10-28T02:08:24.255Z,96174.19
2022-10-28T02:12:28.455Z,96182.75
2022-10-28T02:16:17.701Z,96179.50
2022-10-28T02:20:11.268Z,96180.31
2022-10-28T02:23:57.325Z,96174.63
2022-10-28T02:27:44.762Z,96189.25
2022-10-28T02:31:31.727Z,96189.25
2022-10-28T02:35:18.021Z,96189.63
2022-10-28T02:39:02.250Z,96174.81
2022-10-28T02:42:48.303Z,96177.84
2022-10-28T02:46:32.151Z,96182.72
2022-10-28T02:50:24.186Z,96173.56
2022-10-28T02:54:11.545Z,96179.84
2022-10-28T02:57:54.528Z,96166.66
2022-10-28T03:01:37.755Z,96160.72
2022-10-28T03:05:21.996Z,96167.81
2022-10-28T03:09:04.982Z,96157.00
2022-10-28T03:12:47.981Z,96162.69
2022-10-28T03:16:30.815Z,96163.09
2022-10-28T03:20:13.510Z,96165.72
2022-10-28T03:23:57.572Z,96173.22
2022-10-28T03:27:41.361Z,96169.56
2022-10-28T03:31:24.719Z,96179.50
2022-10-28T03:35:08.750Z,96170.34
2022-10-28T03:38:57.319Z,96172.78
2022-10-28T03:42:43.177Z,96174.78
2022-10-28T03:46:26.036Z,96165.63
2022-10-28T03:50:09.802Z,96171.13
2022-10-28T03:53:54.445Z,96167.66
2022-10-28T03:57:37.545Z,96171.53
2022-10-28T04:01:24.625Z,96178.22
2022-10-28T04:05:08.019Z,96175.97
2022-10-28T04:08:54.133Z,96173.34
2022-10-28T04:12:36.926Z,96175.97
2022-10-28T04:16:20.933Z,96178.81
2022-10-28T04:20:03.845Z,96167.44
2022-10-28T04:23:46.700Z,96174.34
2022-10-28T04:27:31.669Z,96173.94
2022-10-28T04:31:14.479Z,96171.94
2022-10-28T04:34:58.477Z,96171.94
2022-10-28T04:38:41.109Z,96173.56
2022-10-28T04:42:24.201Z,96169.09
2022-10-28T04:46:07.000Z,96173.56
2022-10-28T04:49:49.751Z,96173.56
2022-10-28T04:53:34.009Z,96173.13
2022-10-28T04:57:17.639Z,96169.06
2022-10-28T05:01:00.323Z,96170.63
2022-10-28T05:04:43.120Z,96168.59
2022-10-28T05:08:25.814Z,96166.97
2022-10-28T05:12:09.962Z,96162.88
2022-10-28T05:15:52.991Z,96155.56
2022-10-28T05:19:35.816Z,96151.06
2022-10-28T05:23:18.514Z,96158.34
2022-10-28T05:27:01.298Z,96157.13
2022-10-28T05:30:46.045Z,96152.63
2022-10-28T05:34:28.980Z,96152.59
2022-10-28T05:38:14.599Z,96146.06
2022-10-28T05:41:57.298Z,96155.81
2022-10-28T05:45:44.474Z,96157.06
2022-10-28T05:49:31.083Z,96147.16
2022-10-28T05:53:13.844Z,96152.88
2022-10-28T05:56:56.467Z,96153.53
2022-10-28T06:00:39.200Z,96152.34
2022-10-28T06:04:21.883Z,96158.50
2022-10-28T06:08:06.623Z,96166.25
2022-10-28T06:11:48.179Z,96170.75
2022-10-28T06:15:31.071Z,96175.22
2022-10-28T06:19:13.865Z,96182.56
2022-10-28T06:22:56.803Z,96183.19
2022-10-28T06:26:43.403Z,96185.03
2022-10-28T06:30:27.086Z,96189.97
2022-10-28T06:34:10.324Z,96190.19
2022-10-28T06:37:54.594Z,96191.41
2022-10-28T06:41:37.627Z,96182.72
2022-10-28T06:45:23.661Z,96181.09
2022-10-28T06:49:09.036Z,96177.44
2022-10-28T06:52:51.852Z,96181.31
2022-10-28T06:56:34.542Z,96196.16
2022-10-28T07:00:17.748Z,96190.47
2022-10-28T07:04:02.011Z,96194.34
2022-10-28T07:07:44.909Z,96196.59
2022-10-28T07:11:27.716Z,96194.56
2022-10-28T07:15:11.521Z,96197.00
2022-10-28T07:18:54.163Z,96205.38
2022-10-28T07:22:38.213Z,96207.22
2022-10-28T07:26:21.018Z,96219.19
2022-10-28T07:30:03.673Z,96221.44
2022-10-28T07:33:46.405Z,96224.91
2022-10-28T07:37:29.078Z,96218.56
2022-10-28T07:41:13.129Z,96224.41
2022-10-28T07:44:55.787Z,96221.34
2022-10-28T07:48:38.970Z,96223.09
2022-10-28T07:52:21.643Z,96232.56
2022-10-28T07:56:07.031Z,96227.59
2022-10-28T07:59:51.089Z,96225.41
2022-10-28T08:03:38.570Z,96228.50
2022-10-28T08:07:24.274Z,96230.13
2022-10-28T08:11:11.320Z,96223.97
2022-10-28T08:14:56.200Z,96226.84
2022-10-28T08:18:42.099Z,96221.53
2022-10-28T08:22:24.876Z,96213.53
2022-10-28T08:26:07.754Z,96223.59
2022-10-28T08:29:50.499Z,96226.66
2022-10-28T08:33:34.552Z,96227.66
2022-10-28T08:37:17.413Z,96224.22
2022-10-28T08:41:07.520Z,96226.16
2022-10-28T08:45:05.001Z,96223.16
2022-10-28T08:48:49.061Z,96211.00
2022-10-28T08:52:35.265Z,96220.16
2022-10-28T08:56:32.860Z,96227.09
2022-10-28T09:00:22.006Z,96212.75
2022-10-28T09:04:11.303Z,96221.53
2022-10-28T09:07:54.977Z,96225.03
2022-10-28T09:11:54.546Z,96229.06
2022-10-28T09:19:39.461Z,96231.28
2022-10-28T09:23:28.242Z,96227.34
2022-10-28T09:27:17.434Z,96231.97
2022-10-28T09:31:05.859Z,96220.06
2022-10-28T09:34:51.166Z,96217.50
2022-10-28T09:38:35.707Z,96217.16
2022-10-28T09:42:23.455Z,96217.78
2022-10-28T09:46:11.942Z,96213.75
2022-10-28T09:49:59.022Z,96218.34
2022-10-28T09:53:45.016Z,96210.69
2022-10-28T09:57:31.360Z,96222.72
2022-10-28T10:01:15.058Z,96217.69
2022-10-28T10:05:00.491Z,96216.38
2022-10-28T10:08:44.585Z,96209.34
2022-10-28T10:12:28.158Z,96213.72
2022-10-28T10:16:15.816Z,96206.38
2022-10-28T10:20:02.879Z,96216.75
2022-10-28T10:23:47.073Z,96216.19
2022-10-28T10:27:30.498Z,96212.34
2022-10-28T10:31:19.956Z,96208.19
2022-10-28T10:35:09.425Z,96201.66
2022-10-28T10:38:54.072Z,96200.84
2022-10-28T10:42:42.688Z,96209.88
2022-10-28T10:46:34.624Z,96200.78
2022-10-28T10:54:20.099Z,96190.97
2022-10-28T10:58:03.372Z,96183.91
2022-10-28T11:01:49.216Z,96185.56
2022-10-28T11:05:38.066Z,96187.28
2022-10-28T11:09:25.223Z,96183.59
2022-10-28T11:13:27.077Z,96171.38
2022-10-28T11:17:24.931Z,96175.00
2022-10-28T11:21:17.519Z,96169.03
2022-10-28T11:25:17.640Z,96156.94
2022-10-28T11:29:10.967Z,96158.59
2022-10-28T11:33:08.030Z,96154.84
2022-10-28T11:37:00.808Z,96141.50
2022-10-28T11:41:07.299Z,96141.59
2022-10-28T11:44:54.558Z,96134.75
2022-10-28T11:49:01.612Z,96124.59
2022-10-28T11:52:59.939Z,96136.41
2022-10-28T11:57:02.039Z,96132.75
2022-10-28T12:00:51.280Z,96130.13
2022-10-28T12:04:54.097Z,96138.81
2022-10-28T12:08:45.782Z,96126.81
2022-10-28T12:12:32.032Z,96129.56
2022-10-28T12:16:19.546Z,96125.03
2022-10-28T12:20:04.358Z,96121.25
2022-10-28T12:23:49.567Z,96120.22
2022-10-28T12:27:34.660Z,96107.78
2022-10-28T12:31:21.825Z,96102.06
2022-10-28T12:35:07.727Z,96092.94
2022-10-28T12:38:57.474Z,96086.97
2022-10-28T12:42:42.434Z,96092.03
2022-10-28T12:46:31.611Z,96090.88
2022-10-28T12:50:21.113Z,96086.47
2022-10-28T12:54:12.129Z,96089.72
2022-10-28T12:58:00.071Z,96087.56
2022-10-28T13:01:45.067Z,96089.19
2022-10-28T13:05:33.121Z,96092.47
2022-10-28T13:09:36.343Z,96086.56
2022-10-28T13:13:42.162Z,96096.00
2022-10-28T13:17:35.915Z,96096.31
2022-10-28T13:21:29.181Z,96086.69
2022-10-28T13:25:24.670Z,96086.16
2022-10-28T13:29:08.378Z,96081.59
2022-10-28T13:33:00.701Z,96093.66
2022-10-28T13:36:45.743Z,96078.69
2022-10-28T13:41:01.785Z,96086.13
2022-10-28T13:44:50.469Z,96091.09
2022-10-28T13:48:54.006Z,96079.09
2022-10-28T13:52:38.603Z,96078.72
2022-10-28T13:56:26.465Z,96085.91
2022-10-28T14:00:35.896Z,96072.84
2022-10-28T14:04:24.586Z,96073.97
2022-10-28T14:08:08.556Z,96078.44
2022-10-28T14:12:05.592Z,96086.63
2022-10-28T14:15:50.869Z,96084.50
2022-10-28T14:19:33.766Z,96088.44
2022-10-28T14:23:53.785Z,96087.22
2022-10-28T14:27:43.126Z,96092.31
2022-10-28T14:31:51.045Z,96084.56
2022-10-28T14:35:40.074Z,96090.88
2022-10-28T14:39:36.976Z,96080.44
2022-10-28T14:43:38.202Z,96087.34
2022-10-28T14:47:36.650Z,96083.13
2022-10-28T14:51:21.272Z,96073.00
2022-10-28T14:55:07.210Z,96087.59
2022-10-28T14:58:50.314Z,96077.16
2022-10-28T15:02:35.683Z,96083.94
2022-10-28T15:06:26.787Z,96080.53
2022-10-28T15:10:15.968Z,96082.97
2022-10-28T15:14:12.830Z,96081.44
2022-10-28T15:17:57.145Z,96084.97
2022-10-28T15:21:39.803Z,96090.94
2022-10-28T15:25:23.754Z,96087.66
2022-10-28T15:29:06.608Z,96081.78
2022-10-28T15:32:49.360Z,96085.28
2022-10-28T15:36:33.584Z,96087.44
2022-10-28T15:40:22.199Z,96088.50
2022-10-28T15:44:05.563Z,96087.13
2022-10-28T15:47:48.582Z,96083.06
2022-10-28T15:51:31.211Z,96087.59
2022-10-28T15:55:41.690Z,96089.72
2022-10-28T15:59:33.570Z,96086.94
2022-10-28T16:03:26.232Z,96083.91
2022-10-28T16:07:09.563Z,96078.75
2022-10-28T16:10:56.015Z,96074.59
2022-10-28T16:14:40.025Z,96079.84
2022-10-28T16:18:24.016Z,96080.19
2022-10-28T16:22:06.953Z,96076.78
2022-10-28T16:25:49.771Z,96072.38
2022-10-28T16:29:33.825Z,96072.81
2022-10-28T16:33:16.567Z,96080.16
2022-10-28T16:36:59.321Z,96080.88
2022-10-28T16:40:57.349Z,96089.88
2022-10-28T16:44:41.433Z,96091.69
2022-10-28T16:48:25.790Z,96087.84
2022-10-28T16:52:15.237Z,96088.28
2022-10-28T16:55:59.097Z,96082.84
2022-10-28T16:59:43.570Z,96090.66
2022-10-28T17:03:26.302Z,96085.66
2022-10-28T17:07:09.082Z,96082.31
2022-10-28T17:10:51.849Z,96086.94
2022-10-28T17:14:34.676Z,96088.66
2022-10-28T17:18:19.455Z,96091.41
2022-10-28T17:22:06.123Z,96094.97
2022-10-28T17:25:57.036Z,96095.88
2022-10-28T17:29:39.857Z,96094.09
2022-10-28T17:33:23.927Z,96103.56
2022-10-28T17:37:07.779Z,96101.75
2022-10-28T17:40:54.888Z,96106.38
2022-10-28T17:44:37.864Z,96107.44
2022-10-28T17:48:20.800Z,96102.00
2022-10-28T17:52:05.260Z,96109.75
2022-10-28T17:55:56.478Z,96103.75
2022-10-28T17:59:39.193Z,96100.03
2022-10-28T18:03:22.470Z,96103.28
2022-10-28T18:07:08.628Z,96104.56
2022-10-28T18:10:55.250Z,96100.19
2022-10-28T18:14:37.948Z,96106.00
2022-10-28T18:18:20.752Z,96105.19
2022-10-28T18:22:03.532Z,96099.84
2022-10-28T18:25:50.351Z,96098.72
2022-10-28T18:29:33.030Z,96106.25
2022-10-28T18:33:15.686Z,96105.59
2022-10-28T18:36:58.404Z,96110.25
2022-10-28T18:40:47.880Z,96111.66
2022-10-28T18:44:31.943Z,96109.03
2022-10-28T18:48:14.646Z,96118.97
2022-10-28T18:51:59.435Z,96113.41
2022-10-28T18:55:42.178Z,96109.00
2022-10-28T18:59:26.331Z,96105.19
2022-10-28T19:03:17.750Z,96099.28
2022-10-28T19:07:00.482Z,96103.81
2022-10-28T19:10:43.277Z,96109.13
2022-10-28T19:14:27.386Z,96106.94
2022-10-28T19:18:11.391Z,96117.34
2022-10-28T19:21:55.732Z,96109.38
2022-10-28T19:25:39.738Z,96115.97
2022-10-28T19:29:22.531Z,96124.09
2022-10-28T19:33:06.767Z,96140.75
2022-10-28T19:36:49.427Z,96145.56
2022-10-28T19:40:32.144Z,96139.81
2022-10-28T19:44:14.780Z,96139.22
2022-10-28T19:48:01.590Z,96134.81
2022-10-28T19:51:45.580Z,96140.47
2022-10-28T19:55:28.255Z,96133.44
2022-10-28T19:59:11.042Z,96143.16
2022-10-28T20:02:53.776Z,96134.28
2022-10-28T20:06:38.121Z,96136.94
2022-10-28T20:10:22.138Z,96136.13
2022-10-28T20:14:08.373Z,96133.69
2022-10-28T20:17:51.063Z,96142.59
2022-10-28T20:21:34.523Z,96142.09
2022-10-28T20:25:17.209Z,96138.94
2022-10-28T20:29:01.927Z,96137.09
2022-10-28T20:32:44.588Z,96127.84
2022-10-28T20:36:31.941Z,96133.31
2022-10-28T20:40:17.961Z,96137.94
2022-10-28T20:44:04.360Z,96142.44
2022-10-28T20:47:47.312Z,96140.38
2022-10-28T20:51:32.814Z,96140.25
2022-10-28T20:55:15.813Z,96139.44
2022-10-28T20:58:58.772Z,96148.31
2022-10-28T21:02:42.849Z,96134.50
2022-10-28T21:06:26.426Z,96142.44
2022-10-28T21:10:11.104Z,96140.47
2022-10-28T21:13:55.156Z,96140.47
2022-10-28T21:17:37.790Z,96127.78
2022-10-28T21:21:23.574Z,96127.53
2022-10-28T21:25:07.314Z,96126.50
2022-10-28T21:28:51.784Z,96133.81
2022-10-28T21:32:37.133Z,96134.16
2022-10-28T21:36:22.268Z,96123.94
2022-10-28T21:40:05.828Z,96134.69
2022-10-28T21:43:50.033Z,96130.97
2022-10-28T21:47:32.659Z,96143.25
2022-10-28T21:51:16.508Z,96142.06
2022-10-28T21:55:05.978Z,96143.34
2022-10-28T21:58:57.430Z,96135.00
2022-10-28T22:02:40.223Z,96136.06
2022-10-28T22:06:22.966Z,96129.53
2022-10-28T22:10:08.089Z,96128.66
2022-10-28T22:13:56.605Z,96126.88
2022-10-28T22:17:39.904Z,96123.81
2022-10-28T22:21:29.811Z,96115.28
2022-10-28T22:25:13.841Z,96118.28
2022-10-28T22:28:56.675Z,96113.81
2022-10-28T22:32:39.375Z,96114.50
2022-10-28T22:36:23.981Z,96120.50
2022-10-28T22:40:07.726Z,96109.69
2022-10-28T22:43:52.883Z,96116.44
2022-10-28T22:47:35.525Z,96115.28
2022-10-28T22:51:18.451Z,96121.75
2022-10-28T22:55:01.267Z,96130.97
2022-10-28T22:58:44.138Z,96130.34
2022-10-28T23:02:28.422Z,96125.59
2022-10-28T23:06:12.222Z,96115.97
2022-10-28T23:09:55.472Z,96111.16
2022-10-28T23:13:40.942Z,96122.13
2022-10-28T23:17:25.521Z,96122.44
2022-10-28T23:21:12.528Z,96116.84
2022-10-28T23:24:55.244Z,96131.72
2022-10-28T23:28:37.996Z,96117.13
2022-10-28T23:32:25.713Z,96120.88
2022-10-28T23:36:11.973Z,96121.44
2022-10-28T23:39:54.752Z,96112.59
2022-10-28T23:43:37.828Z,96106.53
2022-10-28T23:47:20.553Z,96121.72
2022-10-28T23:51:03.524Z,96116.06
2022-10-28T23:54:47.511Z,96122.03
2022-10-28T23:58:30.239Z,96112.72
